Downstream station:
SHEF ID: NFSM7 N Fork Spring River nr Purcell, MO
STATION TYPE:
STAGE RIV-FLOW
ft cfs
Ccp-Rev Ccp-Rev
(US/Central)
03/31 00:00 4.01 224
03/31 01:00 4.03 229
03/31 02:00 4.05 233
03/31 03:00 4.09 242
03/31 04:00 4.11 247
03/31 05:00 4.15 256
03/31 06:00 4.19 266
03/31 07:00 4.25 280
03/31 08:00 4.32 298
03/31 09:00 4.40 320
03/31 10:00 4.47 339
03/31 11:00 4.52 354
03/31 12:00 4.57 368
03/31 13:00 4.58 371
03/31 14:00 4.60 377
03/31 15:00 4.60 377
03/31 16:00 4.59 374
03/31 17:00 4.57 368
03/31 18:00 4.55 362
03/31 19:00 4.53 357
03/31 20:00 4.51 351
03/31 21:00 4.49 345
03/31 22:00 4.47 339
03/31 23:00 4.45 334